Time;durP1;ratioP1;P1;durP2;ratioP2;P2;SDS_P1;SDS_P2;PMS_P1;PMS_P2;Temp;Humidity;BMP_temperature;BMP_pressure;BME280_temperature;BME280_humidity;BME280_pressure;Samples;Min_cycle;Max_cycle;Signal;HPM_P1;HPM_P2
2021/12/08 00:00:08;;;;;;;3.85;1.83;;;7.80;99.90;;;;;;4957750;28;20185;-79
2021/12/08 00:02:34;;;;;;;2.28;1.60;;;7.80;99.90;;;;;;4975384;28;20178;-82
2021/12/08 00:04:59;;;;;;;2.92;1.73;;;7.90;99.90;;;;;;4975433;28;20267;-84
2021/12/08 00:07:25;;;;;;;4.55;2.22;;;8.00;99.90;;;;;;4974946;28;20248;-85
2021/12/08 00:10:03;;;;;;;2.88;1.33;;;7.80;99.90;;;;;;4975303;28;20170;-80
2021/12/08 00:15:14;;;;;;;11.13;2.05;;;7.80;99.90;;;;;;4975167;28;20221;-80
2021/12/08 00:17:39;;;;;;;7.30;2.40;;;7.90;99.90;;;;;;4975232;28;20217;-79
2021/12/08 00:20:06;;;;;;;3.63;1.90;;;7.90;99.90;;;;;;4974731;28;20201;-79
2021/12/08 00:22:31;;;;;;;4.95;2.17;;;7.90;99.90;;;;;;4974716;28;20166;-80
2021/12/08 00:24:57;;;;;;;5.32;1.83;;;7.90;99.90;;;;;;4975039;28;20578;-84
2021/12/08 00:27:23;;;;;;;3.83;1.55;;;8.00;99.90;;;;;;4974958;28;20686;-83
2021/12/08 00:29:48;;;;;;;3.90;1.98;;;8.00;99.90;;;;;;4974883;28;20257;-85
2021/12/08 00:32:14;;;;;;;10.75;2.08;;;8.10;99.90;;;;;;4974675;28;20253;-78
2021/12/08 00:34:40;;;;;;;7.03;2.20;;;8.10;99.90;;;;;;4974611;28;20170;-83
2021/12/08 00:37:06;;;;;;;9.98;2.25;;;8.00;99.90;;;;;;4973106;28;20256;-78
2021/12/08 00:39:33;;;;;;;4.55;1.67;;;8.00;99.90;;;;;;4974331;28;20174;-78
2021/12/08 00:41:58;;;;;;;3.85;1.95;;;8.00;99.90;;;;;;4957281;28;20205;-83
2021/12/08 00:44:24;;;;;;;4.35;2.08;;;7.90;99.90;;;;;;4974499;28;20176;-79
2021/12/08 00:46:50;;;;;;;3.72;1.95;;;7.90;99.90;;;;;;4974242;28;20190;-81
2021/12/08 00:49:16;;;;;;;2.22;1.73;;;8.00;99.90;;;;;;4974259;28;20173;-80
2021/12/08 00:51:42;;;;;;;3.80;1.73;;;8.00;99.90;;;;;;4974216;28;20260;-83
2021/12/08 00:54:08;;;;;;;4.35;1.42;;;8.00;99.90;;;;;;4974405;28;20172;-78
2021/12/08 00:56:35;;;;;;;9.07;2.15;;;7.90;99.90;;;;;;4957146;28;20197;-83
2021/12/08 00:59:00;;;;;;;7.97;1.75;;;7.90;99.90;;;;;;4974496;28;20692;-81
2021/12/08 01:01:27;;;;;;;5.25;1.75;;;8.10;99.90;;;;;;4940708;28;20218;-82
2021/12/08 01:03:52;;;;;;;6.03;1.50;;;8.10;99.90;;;;;;4956686;28;20533;-79
2021/12/08 01:06:19;;;;;;;7.20;2.10;;;8.20;99.90;;;;;;4973992;28;20201;-79
2021/12/08 01:08:45;;;;;;;5.78;1.73;;;8.20;99.90;;;;;;4956699;28;20198;-81
2021/12/08 01:11:14;;;;;;;4.35;1.58;;;8.20;99.90;;;;;;4974154;28;20170;-78
2021/12/08 01:13:41;;;;;;;7.18;1.92;;;8.10;99.90;;;;;;4973862;28;20637;-82
2021/12/08 01:16:09;;;;;;;6.75;1.50;;;8.00;99.90;;;;;;4978592;28;20320;-81
2021/12/08 01:18:35;;;;;;;3.13;1.75;;;8.00;99.90;;;;;;4995534;28;20229;-79
2021/12/08 01:21:04;;;;;;;3.55;1.55;;;7.90;99.90;;;;;;4993464;28;20275;-79
2021/12/08 01:23:30;;;;;;;9.35;1.40;;;7.80;99.90;;;;;;4988961;28;20161;-81
2021/12/08 01:25:57;;;;;;;3.72;1.52;;;7.80;99.90;;;;;;4975470;28;20213;-81
2021/12/08 01:28:23;;;;;;;7.97;1.70;;;7.70;99.90;;;;;;4960907;28;20174;-79
2021/12/08 01:30:51;;;;;;;3.65;1.20;;;7.70;99.90;;;;;;4974643;28;20162;-80
2021/12/08 01:33:18;;;;;;;8.93;1.20;;;7.60;99.90;;;;;;4956556;28;20169;-81
2021/12/08 01:35:44;;;;;;;3.70;1.35;;;7.50;99.90;;;;;;4973721;28;20170;-83
2021/12/08 01:38:10;;;;;;;4.13;0.90;;;7.50;99.90;;;;;;4973474;28;20208;-82
2021/12/08 01:40:35;;;;;;;3.58;1.75;;;7.50;99.90;;;;;;4973668;28;20312;-82
2021/12/08 01:43:03;;;;;;;5.90;1.00;;;7.50;99.90;;;;;;4973874;28;20177;-80
2021/12/08 01:48:19;;;;;;;2.35;0.90;;;7.50;99.90;;;;;;4973742;28;20261;-82
2021/12/08 01:50:48;;;;;;;5.13;1.05;;;7.50;99.90;;;;;;4973423;28;20168;-83
2021/12/08 01:53:15;;;;;;;3.22;1.17;;;7.50;99.90;;;;;;4973536;28;20182;-79
2021/12/08 01:55:45;;;;;;;3.05;1.20;;;7.60;99.90;;;;;;4973980;28;20170;-80
2021/12/08 01:58:15;;;;;;;0.77;0.70;;;7.80;99.90;;;;;;4956074;28;20196;-79
2021/12/08 02:00:48;;;;;;;2.53;1.10;;;7.90;99.90;;;;;;4956197;28;20232;-82
2021/12/08 02:03:17;;;;;;;2.15;0.90;;;7.90;99.90;;;;;;4973559;28;20257;-80
2021/12/08 02:05:43;;;;;;;4.70;1.20;;;7.90;99.90;;;;;;4956607;28;20184;-84
2021/12/08 02:08:09;;;;;;;14.10;1.90;;;7.90;99.90;;;;;;4956387;28;20186;-82
2021/12/08 02:10:37;;;;;;;3.55;1.08;;;7.90;99.90;;;;;;4973663;28;20216;-83
2021/12/08 02:13:04;;;;;;;7.22;1.33;;;7.90;99.90;;;;;;4973328;28;20166;-82
2021/12/08 02:15:29;;;;;;;4.75;0.88;;;8.00;99.90;;;;;;4956146;28;20166;-85
2021/12/08 02:17:56;;;;;;;3.58;0.88;;;8.10;99.90;;;;;;4973304;28;20557;-84
2021/12/08 02:20:26;;;;;;;1.73;0.70;;;7.90;99.90;;;;;;4973649;28;20621;-83
2021/12/08 02:22:52;;;;;;;7.70;1.30;;;7.80;99.90;;;;;;4973223;28;20181;-83
2021/12/08 02:25:22;;;;;;;5.10;1.42;;;7.80;99.90;;;;;;4973626;28;20224;-84
2021/12/08 02:27:48;;;;;;;3.80;1.20;;;7.80;99.90;;;;;;4973392;28;20226;-83
2021/12/08 02:47:08;;;;;;;2.50;1.00;;;7.30;99.90;;;;;;4977281;28;20252;-82
2021/12/08 02:49:35;;;;;;;3.22;0.80;;;7.30;99.90;;;;;;4976793;28;20250;-82
2021/12/08 02:52:03;;;;;;;5.88;1.15;;;7.20;99.90;;;;;;4976487;28;20173;-82
2021/12/08 02:54:35;;;;;;;2.45;0.80;;;7.20;99.90;;;;;;4976944;28;20190;-83
2021/12/08 02:57:00;;;;;;;3.83;1.00;;;7.10;99.90;;;;;;4976753;28;20225;-81
2021/12/08 02:59:26;;;;;;;4.88;1.00;;;7.10;99.90;;;;;;4959049;28;20253;-84
2021/12/08 03:01:52;;;;;;;7.70;1.13;;;7.10;99.90;;;;;;4976357;28;20197;-84
2021/12/08 03:04:18;;;;;;;4.03;0.85;;;7.10;99.90;;;;;;4976416;28;20639;-82
2021/12/08 03:06:43;;;;;;;5.10;1.33;;;7.00;99.90;;;;;;4976522;28;20280;-81
2021/12/08 03:09:09;;;;;;;2.63;0.85;;;7.00;99.90;;;;;;4976430;28;20174;-79
2021/12/08 03:11:35;;;;;;;1.73;0.80;;;7.00;99.90;;;;;;4976290;28;20224;-83
2021/12/08 03:14:08;;;;;;;0.65;0.50;;;7.00;99.90;;;;;;4974942;28;20296;-78
2021/12/08 03:16:37;;;;;;;5.55;1.48;;;7.00;99.90;;;;;;4976168;28;20187;-84
2021/12/08 03:19:03;;;;;;;4.70;0.93;;;7.00;99.90;;;;;;4958789;28;20202;-83
2021/12/08 03:21:31;;;;;;;1.92;0.90;;;7.00;99.90;;;;;;4976283;28;20217;-83
2021/12/08 03:27:11;;;;;;;1.55;0.85;;;7.00;99.90;;;;;;4976431;28;20281;-84
2021/12/08 03:29:51;;;;;;;2.78;1.42;;;7.00;99.90;;;;;;4975752;28;20663;-85
2021/12/08 03:32:26;;;;;;;5.63;1.40;;;6.90;99.90;;;;;;4975907;28;20177;-84
2021/12/08 03:34:52;;;;;;;2.35;1.42;;;6.90;99.90;;;;;;4975908;28;20224;-79
2021/12/08 03:37:32;;;;;;;9.02;2.00;;;6.90;99.90;;;;;;4975779;28;20190;-82
2021/12/08 03:39:59;;;;;;;2.17;1.23;;;6.90;99.90;;;;;;4957954;28;20237;-82
2021/12/08 03:42:27;;;;;;;9.13;1.02;;;6.80;99.90;;;;;;4975922;28;20213;-83
2021/12/08 03:44:56;;;;;;;4.22;1.00;;;6.70;99.90;;;;;;4975944;28;20165;-83
2021/12/08 03:47:27;;;;;;;9.27;1.02;;;6.80;99.90;;;;;;4975826;28;20221;-81
2021/12/08 03:49:55;;;;;;;4.57;1.42;;;6.80;99.90;;;;;;4975445;28;20267;-83
2021/12/08 03:52:21;;;;;;;11.93;1.13;;;6.70;99.90;;;;;;4975367;28;20213;-81
2021/12/08 03:54:47;;;;;;;8.05;2.10;;;6.60;99.90;;;;;;4975354;28;20166;-83
2021/12/08 03:57:12;;;;;;;6.63;2.03;;;6.60;99.90;;;;;;4974372;28;20240;-83
2021/12/08 03:59:38;;;;;;;7.70;1.80;;;6.80;99.90;;;;;;4975542;28;20170;-84
2021/12/08 04:02:04;;;;;;;4.63;1.17;;;6.70;99.90;;;;;;4974989;28;20209;-83
2021/12/08 04:04:40;;;;;;;9.50;1.30;;;6.70;99.90;;;;;;4974888;28;20162;-82
2021/12/08 04:07:06;;;;;;;6.43;1.35;;;6.70;99.90;;;;;;4974753;28;20185;-79
2021/12/08 04:09:38;;;;;;;7.63;1.60;;;6.70;99.90;;;;;;4975434;28;20174;-79
2021/12/08 04:12:04;;;;;;;11.60;1.75;;;6.70;99.90;;;;;;4973896;28;20174;-83
2021/12/08 04:14:34;;;;;;;10.93;1.42;;;6.70;99.90;;;;;;4975171;28;20218;-83
2021/12/08 04:17:02;;;;;;;6.47;1.15;;;6.60;99.90;;;;;;4975612;28;20196;-81
2021/12/08 04:19:29;;;;;;;13.98;2.05;;;6.40;99.90;;;;;;4979145;28;20170;-78
2021/12/08 04:21:59;;;;;;;2.83;1.00;;;6.40;99.90;;;;;;4987734;28;20593;-78
2021/12/08 04:24:25;;;;;;;11.98;1.85;;;6.50;99.90;;;;;;4975059;28;20181;-83
2021/12/08 04:26:59;;;;;;;5.85;0.85;;;6.50;99.90;;;;;;4974749;28;20684;-79
2021/12/08 04:29:28;;;;;;;8.63;1.30;;;6.60;99.90;;;;;;4974746;28;20200;-82
2021/12/08 04:31:56;;;;;;;10.00;1.23;;;6.50;99.90;;;;;;4974654;28;20640;-83
2021/12/08 04:34:28;;;;;;;14.05;1.70;;;6.50;99.90;;;;;;4974882;28;20252;-84
2021/12/08 04:37:00;;;;;;;2.17;0.90;;;6.60;99.90;;;;;;4975314;28;20731;-84
2021/12/08 04:39:39;;;;;;;9.05;1.17;;;6.50;99.90;;;;;;4975258;28;20189;-85
2021/12/08 04:42:10;;;;;;;6.32;1.17;;;6.50;99.90;;;;;;4975439;28;20228;-84
2021/12/08 04:44:44;;;;;;;7.72;1.00;;;6.50;99.90;;;;;;4974958;28;20163;-84
2021/12/08 04:50:12;;;;;;;8.15;1.92;;;6.70;99.90;;;;;;4974798;28;20533;-80
2021/12/08 04:52:40;;;;;;;3.38;1.30;;;6.70;99.90;;;;;;4973315;28;20268;-84
2021/12/08 05:08:44;;;;;;;5.63;1.52;;;6.20;99.90;;;;;;4989285;28;20181;-81
2021/12/08 05:11:14;;;;;;;4.30;1.08;;;6.30;99.90;;;;;;4992727;28;20177;-85
2021/12/08 05:13:43;;;;;;;3.25;1.50;;;6.40;99.90;;;;;;4992233;28;20166;-84
2021/12/08 05:16:11;;;;;;;11.60;1.50;;;6.30;99.90;;;;;;4991301;28;20189;-81
2021/12/08 05:18:40;;;;;;;4.45;1.05;;;6.30;99.90;;;;;;4970724;28;20177;-82
2021/12/08 05:21:11;;;;;;;6.95;1.48;;;6.20;99.90;;;;;;4992273;28;20217;-81
2021/12/08 05:23:42;;;;;;;6.50;1.55;;;6.30;99.90;;;;;;4992147;28;20190;-82
2021/12/08 05:26:32;;;;;;;5.43;0.85;;;6.30;99.90;;;;;;4988267;28;20189;-79
2021/12/08 05:29:09;;;;;;;6.07;0.95;;;6.30;99.90;;;;;;4987810;28;20624;-79
2021/12/08 05:31:35;;;;;;;6.25;0.90;;;6.30;99.90;;;;;;4987788;28;20186;-78
2021/12/08 05:34:01;;;;;;;2.28;0.77;;;6.30;99.90;;;;;;4989278;28;20154;-81
2021/12/08 05:36:27;;;;;;;16.52;1.60;;;6.40;99.90;;;;;;4988403;28;20434;-79
2021/12/08 05:38:55;;;;;;;5.38;1.23;;;6.30;99.90;;;;;;4983484;28;20525;-79
2021/12/08 05:41:27;;;;;;;4.15;1.02;;;6.30;99.90;;;;;;4957104;28;20213;-78
2021/12/08 05:43:53;;;;;;;7.43;1.10;;;6.10;99.90;;;;;;4974043;28;20644;-79
2021/12/08 05:46:23;;;;;;;5.50;1.20;;;6.30;99.90;;;;;;4974695;28;20199;-83
2021/12/08 05:48:50;;;;;;;4.20;1.58;;;6.40;99.90;;;;;;4974767;28;20348;-84
2021/12/08 05:51:20;;;;;;;7.35;0.98;;;6.20;99.90;;;;;;4974176;28;20174;-80
2021/12/08 05:53:48;;;;;;;5.13;1.25;;;6.20;99.90;;;;;;4974074;28;20169;-79
2021/12/08 05:56:15;;;;;;;4.03;0.93;;;6.20;99.90;;;;;;4974298;28;20240;-78
2021/12/08 05:58:41;;;;;;;4.18;1.00;;;6.20;99.90;;;;;;4974648;28;20628;-83
2021/12/08 06:01:16;;;;;;;5.25;1.48;;;6.20;99.90;;;;;;4956849;28;20633;-79
2021/12/08 06:03:42;;;;;;;8.23;1.10;;;6.20;99.90;;;;;;4977467;28;20177;-80
2021/12/08 06:06:09;;;;;;;2.72;1.08;;;6.20;99.90;;;;;;4977151;28;20215;-82
2021/12/08 06:08:36;;;;;;;7.07;1.25;;;6.10;99.90;;;;;;4977070;28;20165;-83
2021/12/08 06:11:04;;;;;;;3.25;1.58;;;6.10;99.90;;;;;;4960001;28;20528;-84
2021/12/08 06:13:30;;;;;;;9.40;1.42;;;6.30;99.90;;;;;;4976985;28;20166;-82
2021/12/08 06:15:56;;;;;;;7.20;1.40;;;6.40;99.90;;;;;;4977231;28;20256;-81
2021/12/08 06:18:25;;;;;;;6.80;1.80;;;6.50;99.90;;;;;;4977655;28;20575;-80
2021/12/08 06:20:55;;;;;;;7.82;1.05;;;6.60;99.90;;;;;;4977362;28;20589;-81
2021/12/08 06:23:21;;;;;;;4.20;1.40;;;6.70;99.90;;;;;;4977007;28;20251;-81
2021/12/08 06:25:47;;;;;;;5.15;1.20;;;6.80;99.90;;;;;;4977174;28;20178;-77
2021/12/08 06:28:12;;;;;;;5.00;1.40;;;6.80;99.90;;;;;;4977071;28;20178;-78
2021/12/08 06:30:41;;;;;;;6.65;1.67;;;6.90;99.90;;;;;;4977288;28;20166;-78
2021/12/08 06:33:06;;;;;;;3.78;1.15;;;6.90;99.90;;;;;;4976773;28;20672;-78
2021/12/08 06:35:37;;;;;;;7.75;1.60;;;6.80;99.90;;;;;;4976523;28;20162;-79
2021/12/08 06:38:05;;;;;;;5.30;1.63;;;6.70;99.90;;;;;;4976186;28;20248;-78
2021/12/08 06:40:44;;;;;;;8.05;1.67;;;6.80;99.90;;;;;;4958368;28;20826;-79
2021/12/08 06:43:14;;;;;;;3.35;0.95;;;7.00;99.90;;;;;;4976386;28;20162;-79
2021/12/08 06:45:46;;;;;;;6.95;1.42;;;6.90;99.90;;;;;;4976225;28;20166;-79
2021/12/08 06:48:17;;;;;;;12.70;1.40;;;6.90;99.90;;;;;;4976403;28;20194;-80
2021/12/08 06:50:55;;;;;;;7.18;1.30;;;7.00;99.90;;;;;;4976296;28;20181;-80
2021/12/08 06:53:23;;;;;;;5.55;1.60;;;6.90;99.90;;;;;;4959337;28;20182;-78
2021/12/08 06:55:58;;;;;;;3.50;1.35;;;7.00;99.90;;;;;;4958723;28;20197;-82
2021/12/08 06:58:28;;;;;;;4.28;1.02;;;6.90;99.90;;;;;;4959200;28;20256;-79
2021/12/08 07:03:49;;;;;;;2.15;1.25;;;6.70;99.90;;;;;;4976612;28;20177;-83
2021/12/08 07:09:07;;;;;;;8.55;1.10;;;6.90;99.90;;;;;;4977912;28;20240;-82
2021/12/08 07:11:33;;;;;;;8.75;1.42;;;6.70;99.90;;;;;;4976462;28;20170;-77
2021/12/08 07:13:59;;;;;;;9.13;1.08;;;6.70;99.90;;;;;;4975549;28;20174;-79
2021/12/08 07:16:32;;;;;;;14.90;1.40;;;6.60;99.90;;;;;;4976177;28;20189;-80
2021/12/08 07:22:24;;;;;;;7.95;1.08;;;6.60;99.90;;;;;;4971320;28;20233;-83
2021/12/08 07:24:52;;;;;;;9.20;1.52;;;6.70;99.90;;;;;;4976815;28;20592;-77
2021/12/08 07:27:22;;;;;;;4.72;1.25;;;6.70;99.90;;;;;;4976204;28;20189;-83
2021/12/08 07:29:49;;;;;;;7.30;1.63;;;6.80;99.90;;;;;;4959064;28;20180;-86
2021/12/08 07:32:28;;;;;;;4.72;1.38;;;6.80;99.90;;;;;;4975757;28;20311;-78
2021/12/08 07:34:56;;;;;;;3.28;1.63;;;6.60;99.90;;;;;;4975612;28;20169;-78
2021/12/08 07:37:26;;;;;;;5.72;1.23;;;6.70;99.90;;;;;;4974817;28;20193;-79
2021/12/08 07:39:59;;;;;;;4.57;1.48;;;6.70;99.90;;;;;;4974891;28;20170;-78
2021/12/08 07:42:35;;;;;;;5.50;1.20;;;6.70;99.90;;;;;;4975403;28;20205;-86
2021/12/08 07:45:07;;;;;;;6.18;1.65;;;6.60;99.90;;;;;;4975389;28;20170;-79
2021/12/08 07:47:35;;;;;;;4.47;1.10;;;6.60;99.90;;;;;;4975377;28;20314;-79
2021/12/08 07:50:18;;;;;;;11.35;1.13;;;6.50;99.90;;;;;;4957874;28;20197;-79
2021/12/08 07:52:46;;;;;;;4.63;1.45;;;6.40;99.90;;;;;;4975372;28;20169;-84
2021/12/08 07:55:41;;;;;;;5.82;1.25;;;6.50;99.90;;;;;;4975587;28;20174;-84
2021/12/08 07:58:10;;;;;;;3.92;0.98;;;6.60;99.90;;;;;;4957669;28;20204;-79
2021/12/08 08:00:42;;;;;;;7.78;1.02;;;6.50;99.90;;;;;;4957993;28;20194;-80
2021/12/08 08:03:09;;;;;;;4.68;1.00;;;6.30;99.90;;;;;;4975674;28;20250;-80
2021/12/08 08:05:38;;;;;;;1.02;0.60;;;6.20;99.90;;;;;;4975175;28;20720;-78
2021/12/08 08:08:07;;;;;;;9.00;1.02;;;6.30;99.90;;;;;;4978022;28;20328;-80
2021/12/08 08:10:42;;;;;;;7.85;1.30;;;6.40;99.90;;;;;;4978465;28;20170;-78
2021/12/08 08:13:09;;;;;;;6.18;1.08;;;6.50;99.90;;;;;;4980297;28;20173;-82
2021/12/08 08:15:40;;;;;;;5.35;1.08;;;6.40;99.90;;;;;;4961704;28;20178;-80
2021/12/08 08:18:08;;;;;;;4.55;1.67;;;6.30;99.90;;;;;;4977050;28;20193;-78
2021/12/08 08:20:39;;;;;;;3.63;1.00;;;6.40;99.90;;;;;;4974986;28;20177;-78
2021/12/08 08:23:05;;;;;;;5.32;1.10;;;6.50;99.90;;;;;;4975033;28;20656;-79
2021/12/08 08:25:37;;;;;;;1.33;0.88;;;6.60;99.90;;;;;;4975277;28;20166;-85
2021/12/08 08:28:04;;;;;;;5.00;1.00;;;6.70;99.90;;;;;;4974762;28;20877;-79
2021/12/08 08:30:51;;;;;;;8.45;1.15;;;6.90;99.90;;;;;;4974331;28;20166;-79
2021/12/08 08:33:18;;;;;;;3.80;1.15;;;6.70;99.90;;;;;;4957220;28;20177;-82
2021/12/08 08:35:54;;;;;;;6.57;1.38;;;6.70;99.90;;;;;;4975035;28;20190;-80
2021/12/08 08:38:27;;;;;;;3.65;1.05;;;6.90;99.90;;;;;;4975488;28;20292;-82
2021/12/08 08:41:00;;;;;;;13.23;1.40;;;6.90;99.90;;;;;;4975122;28;20213;-87
2021/12/08 08:43:26;;;;;;;5.45;1.27;;;7.00;99.90;;;;;;4974608;28;20200;-80
2021/12/08 08:46:04;;;;;;;3.05;1.15;;;7.00;99.90;;;;;;4973992;28;20170;-77
2021/12/08 08:48:34;;;;;;;4.25;1.35;;;7.00;99.90;;;;;;4974531;28;20166;-80
2021/12/08 08:51:10;;;;;;;2.40;0.90;;;7.10;99.90;;;;;;4949590;28;20200;-78
2021/12/08 08:53:39;;;;;;;1.88;1.10;;;7.00;99.90;;;;;;4936893;29;20174;-78
2021/12/08 08:56:12;;;;;;;4.05;1.23;;;7.00;99.90;;;;;;4937284;29;20171;-81
2021/12/08 08:58:41;;;;;;;5.45;1.17;;;7.20;99.90;;;;;;4954027;29;20574;-80
2021/12/08 09:01:15;;;;;;;5.55;1.20;;;7.30;99.90;;;;;;4969793;28;20201;-79
2021/12/08 09:03:46;;;;;;;4.30;1.30;;;7.30;99.90;;;;;;4974024;28;20173;-84
2021/12/08 09:06:24;;;;;;;4.32;1.27;;;7.40;99.90;;;;;;4974325;28;20190;-79
2021/12/08 09:08:50;;;;;;;4.63;1.60;;;7.40;99.90;;;;;;4973555;28;20245;-79
2021/12/08 09:11:29;;;;;;;7.30;1.90;;;7.40;99.90;;;;;;4974184;28;20189;-79
2021/12/08 09:14:04;;;;;;;9.93;1.90;;;7.40;99.90;;;;;;4973956;28;20256;-79
2021/12/08 09:16:42;;;;;;;7.60;1.80;;;7.40;99.90;;;;;;4970553;28;20182;-83
2021/12/08 09:19:32;;;;;;;6.05;1.50;;;7.40;99.90;;;;;;4961524;28;20188;-77
2021/12/08 09:22:09;;;;;;;6.93;1.92;;;7.50;99.90;;;;;;4973740;28;20676;-84
2021/12/08 09:24:46;;;;;;;4.90;1.40;;;7.40;99.90;;;;;;4973233;28;20181;-83
2021/12/08 09:27:19;;;;;;;6.35;1.10;;;7.30;99.90;;;;;;4973212;28;20199;-81
2021/12/08 09:29:55;;;;;;;3.60;1.00;;;7.20;99.90;;;;;;4972469;28;20206;-79
2021/12/08 09:32:30;;;;;;;7.50;1.30;;;7.20;99.90;;;;;;4974452;28;20197;-89
2021/12/08 09:34:59;;;;;;;1.75;1.30;;;7.10;99.90;;;;;;4955532;28;20656;-89
2021/12/08 09:37:31;;;;;;;4.05;1.30;;;7.10;99.90;;;;;;4959096;28;20201;-84
2021/12/08 09:40:09;;;;;;;10.25;1.45;;;7.00;99.90;;;;;;4979726;28;20628;-90
2021/12/08 09:42:46;;;;;;;1.40;1.00;;;6.90;99.90;;;;;;4982508;28;20209;-82
2021/12/08 09:45:33;;;;;;;2.40;1.10;;;6.90;99.90;;;;;;4981683;28;20161;-89
2021/12/08 09:48:07;;;;;;;4.43;1.25;;;7.00;99.90;;;;;;4981147;28;20667;-79
2021/12/08 09:50:34;;;;;;;3.88;1.10;;;7.00;99.90;;;;;;4981105;28;20244;-90
2021/12/08 09:53:01;;;;;;;3.65;1.42;;;7.10;99.90;;;;;;4981548;28;20204;-87
2021/12/08 09:55:27;;;;;;;3.17;0.98;;;7.20;99.90;;;;;;4963524;28;20173;-80
2021/12/08 09:57:53;;;;;;;4.80;1.20;;;7.30;99.90;;;;;;4981066;28;20196;-89
2021/12/08 10:00:29;;;;;;;2.17;1.27;;;7.20;99.90;;;;;;4980829;28;20181;-79
2021/12/08 10:02:58;;;;;;;5.53;1.08;;;7.10;99.90;;;;;;4981083;28;20209;-87
2021/12/08 10:05:25;;;;;;;15.60;1.13;;;7.00;99.90;;;;;;4980777;28;20157;-78
2021/12/08 10:07:51;;;;;;;1.65;0.93;;;7.00;99.90;;;;;;4963775;28;20197;-75
2021/12/08 10:10:18;;;;;;;6.25;1.52;;;7.00;99.90;;;;;;4981149;28;20193;-81
2021/12/08 10:12:44;;;;;;;6.75;2.13;;;6.90;99.90;;;;;;4981091;28;20211;-80
2021/12/08 10:15:14;;;;;;;8.90;1.38;;;6.90;99.90;;;;;;4981689;28;20245;-79
2021/12/08 10:17:39;;;;;;;5.70;1.65;;;7.00;99.90;;;;;;4983400;28;20182;-80
2021/12/08 10:20:11;;;;;;;2.38;1.20;;;7.00;99.90;;;;;;4979962;28;20181;-79
2021/12/08 10:22:37;;;;;;;7.50;1.45;;;7.00;99.90;;;;;;4980187;28;20668;-80
2021/12/08 10:25:19;;;;;;;4.00;1.38;;;7.10;99.90;;;;;;4975946;28;20170;-83
2021/12/08 10:28:08;;;;;;;4.25;0.93;;;7.20;99.90;;;;;;4969731;28;20276;-79
2021/12/08 10:30:45;;;;;;;5.63;1.30;;;7.20;99.90;;;;;;4981748;28;20166;-90
2021/12/08 10:33:47;;;;;;;2.60;1.20;;;7.20;99.90;;;;;;4980654;28;20182;-86
2021/12/08 10:36:33;;;;;;;3.33;1.30;;;7.30;99.90;;;;;;4979576;28;20217;-81
2021/12/08 10:39:09;;;;;;;7.53;1.35;;;7.40;99.90;;;;;;4978976;28;20170;-93
2021/12/08 10:41:45;;;;;;;5.35;1.27;;;7.50;99.90;;;;;;4979144;28;20213;-79
2021/12/08 10:44:11;;;;;;;9.27;2.85;;;7.60;99.90;;;;;;4979597;28;20252;-78
2021/12/08 10:46:38;;;;;;;7.90;1.20;;;7.50;99.90;;;;;;4978887;28;20285;-79
2021/12/08 10:49:18;;;;;;;5.72;1.20;;;7.50;99.90;;;;;;4976068;28;20181;-89
2021/12/08 10:54:32;;;;;;;10.13;1.90;;;7.60;99.90;;;;;;4978444;28;20180;-87
2021/12/08 10:57:01;;;;;;;3.00;1.30;;;7.60;99.90;;;;;;4979157;28;20209;-85
2021/12/08 11:00:02;;;;;;;6.40;1.85;;;7.60;99.90;;;;;;4978642;28;20649;-88
2021/12/08 11:02:54;;;;;;;5.35;0.90;;;7.80;99.90;;;;;;4931142;28;20221;-85
2021/12/08 11:05:28;;;;;;;11.00;1.35;;;7.80;99.90;;;;;;4982655;28;20718;-80
2021/12/08 11:08:37;;;;;;;2.25;1.23;;;7.80;99.90;;;;;;4973596;28;20220;-79
2021/12/08 11:11:25;;;;;;;2.97;1.00;;;7.70;99.90;;;;;;4953552;28;20631;-82
2021/12/08 11:14:01;;;;;;;5.50;1.48;;;7.80;99.90;;;;;;4988618;28;20216;-79
2021/12/08 11:16:29;;;;;;;3.88;1.02;;;7.80;99.90;;;;;;4986796;28;20192;-81
2021/12/08 11:19:05;;;;;;;5.22;1.50;;;7.80;99.90;;;;;;4989499;28;20530;-80
2021/12/08 11:21:37;;;;;;;5.93;1.25;;;7.70;99.90;;;;;;4983047;28;20209;-83
2021/12/08 11:24:12;;;;;;;3.65;1.20;;;7.80;99.90;;;;;;4985330;28;20189;-77
2021/12/08 11:26:41;;;;;;;5.75;1.25;;;8.00;99.90;;;;;;4988850;28;20201;-77
2021/12/08 11:29:16;;;;;;;3.28;1.38;;;8.10;99.90;;;;;;4988503;28;20225;-80
2021/12/08 11:31:50;;;;;;;2.95;0.90;;;8.10;99.90;;;;;;4973718;28;20177;-82
2021/12/08 11:34:24;;;;;;;3.55;1.63;;;7.80;99.90;;;;;;4961702;28;20178;-86
2021/12/08 11:36:58;;;;;;;8.98;2.33;;;7.70;99.90;;;;;;4939825;29;20289;-83
2021/12/08 11:39:35;;;;;;;4.55;1.10;;;7.50;99.90;;;;;;4957373;29;20648;-78
2021/12/08 11:42:18;;;;;;;4.15;1.30;;;7.50;99.90;;;;;;4968666;28;20205;-80
2021/12/08 11:44:49;;;;;;;5.78;1.60;;;7.30;99.90;;;;;;4977693;28;20189;-85
2021/12/08 11:47:20;;;;;;;4.90;2.08;;;7.40;99.90;;;;;;4976189;28;20205;-86
2021/12/08 11:49:55;;;;;;;4.30;1.58;;;7.50;99.90;;;;;;4976651;28;20162;-85
2021/12/08 11:52:24;;;;;;;2.28;0.90;;;7.60;99.90;;;;;;4976296;28;20174;-85
2021/12/08 11:54:56;;;;;;;1.80;1.00;;;7.70;99.90;;;;;;4976088;28;20178;-83
2021/12/08 11:57:36;;;;;;;6.88;1.30;;;7.70;99.90;;;;;;4975932;28;20223;-83
2021/12/08 12:00:23;;;;;;;3.17;1.50;;;7.80;99.90;;;;;;4975715;28;20181;-86
2021/12/08 12:03:14;;;;;;;2.67;1.27;;;8.00;99.90;;;;;;4975534;28;20256;-85
2021/12/08 12:05:46;;;;;;;3.42;1.80;;;8.20;99.90;;;;;;4975557;28;20201;-81
2021/12/08 12:08:14;;;;;;;5.43;2.28;;;8.20;99.90;;;;;;4975113;28;20714;-81
2021/12/08 12:10:44;;;;;;;3.67;1.40;;;8.00;99.90;;;;;;4975844;28;20217;-79
2021/12/08 12:13:10;;;;;;;4.65;1.23;;;7.90;99.90;;;;;;4974086;28;20185;-80
2021/12/08 12:15:40;;;;;;;1.63;0.90;;;7.90;99.90;;;;;;4975114;28;20203;-78
2021/12/08 12:18:06;;;;;;;1.83;1.13;;;7.90;99.90;;;;;;4975074;28;20189;-81
2021/12/08 12:20:38;;;;;;;7.60;1.25;;;7.80;99.90;;;;;;4974016;28;20601;-77
2021/12/08 12:23:22;;;;;;;4.95;1.08;;;7.80;99.90;;;;;;4956564;28;20201;-78
2021/12/08 12:25:54;;;;;;;1.98;1.02;;;7.90;99.90;;;;;;4975118;28;20170;-78
2021/12/08 12:28:25;;;;;;;4.13;1.38;;;7.90;99.90;;;;;;4974728;28;20170;-78
2021/12/08 12:31:10;;;;;;;17.20;1.80;;;8.00;99.90;;;;;;4957390;28;20220;-86
2021/12/08 12:33:43;;;;;;;8.18;1.65;;;8.10;99.90;;;;;;4971660;28;20184;-80
2021/12/08 12:36:33;;;;;;;8.45;1.30;;;8.10;99.90;;;;;;4974245;28;20555;-81
2021/12/08 12:39:16;;;;;;;3.25;1.10;;;8.10;99.90;;;;;;4953969;28;20178;-81
2021/12/08 12:41:43;;;;;;;4.57;1.80;;;8.10;99.90;;;;;;4955764;28;20300;-79
2021/12/08 12:44:23;;;;;;;5.90;1.27;;;8.20;99.90;;;;;;4959529;28;20217;-79
2021/12/08 12:47:15;;;;;;;7.93;1.52;;;8.00;99.90;;;;;;4952852;28;20645;-81
2021/12/08 12:49:45;;;;;;;10.50;1.60;;;8.00;99.90;;;;;;4957485;28;20178;-77
2021/12/08 12:52:13;;;;;;;12.55;1.27;;;8.10;99.90;;;;;;4973069;28;20212;-78
2021/12/08 12:54:40;;;;;;;2.88;1.00;;;8.20;99.90;;;;;;4972691;28;20629;-77
2021/12/08 12:57:07;;;;;;;8.70;1.40;;;8.10;99.90;;;;;;4955099;28;20189;-78
2021/12/08 12:59:44;;;;;;;3.55;1.00;;;8.10;99.90;;;;;;4972601;28;20196;-78
2021/12/08 13:02:24;;;;;;;5.00;1.20;;;8.20;99.90;;;;;;4954913;28;20217;-79
2021/12/08 13:04:54;;;;;;;5.03;1.33;;;8.10;99.90;;;;;;4972378;28;20181;-77
2021/12/08 13:07:20;;;;;;;4.00;1.10;;;8.10;99.90;;;;;;4968753;28;20200;-81
2021/12/08 13:09:47;;;;;;;4.13;1.27;;;8.20;99.90;;;;;;4953574;29;20257;-78
2021/12/08 13:12:44;;;;;;;5.25;1.58;;;8.40;99.90;;;;;;4959806;28;20240;-78
2021/12/08 13:15:21;;;;;;;3.33;1.30;;;8.60;99.90;;;;;;4971230;28;20192;-77
2021/12/08 13:18:08;;;;;;;9.15;1.40;;;8.70;99.90;;;;;;4955145;28;20201;-77
2021/12/08 13:20:35;;;;;;;5.07;1.33;;;8.60;99.90;;;;;;4972144;28;20166;-78
2021/12/08 13:23:07;;;;;;;4.82;1.55;;;8.30;99.90;;;;;;4974555;28;20276;-83
2021/12/08 13:25:49;;;;;;;8.02;1.00;;;8.30;99.90;;;;;;4974298;28;20711;-78
2021/12/08 13:28:52;;;;;;;2.25;1.23;;;8.20;99.90;;;;;;4973850;28;20173;-78
2021/12/08 13:31:48;;;;;;;1.15;0.90;;;8.10;99.90;;;;;;4955964;28;20165;-80
2021/12/08 13:34:14;;;;;;;1.60;1.17;;;7.90;99.90;;;;;;4973830;28;20169;-83
2021/12/08 13:36:48;;;;;;;3.63;1.00;;;7.90;99.90;;;;;;4972627;28;20616;-80
2021/12/08 13:39:22;;;;;;;7.03;1.30;;;7.90;99.90;;;;;;4971012;28;20674;-78
2021/12/08 13:42:28;;;;;;;13.75;1.85;;;7.90;99.90;;;;;;4957231;28;20305;-79
2021/12/08 13:44:58;;;;;;;2.47;1.13;;;8.00;99.90;;;;;;4952417;29;20182;-79
2021/12/08 13:47:32;;;;;;;4.32;1.42;;;8.00;99.90;;;;;;4934934;29;20186;-79
2021/12/08 13:50:12;;;;;;;4.93;1.40;;;7.80;99.90;;;;;;4952466;29;20177;-77
2021/12/08 13:52:41;;;;;;;7.60;1.88;;;7.90;99.90;;;;;;4953545;29;20176;-78
2021/12/08 13:55:09;;;;;;;8.13;2.03;;;7.90;99.90;;;;;;4953556;29;20225;-78
2021/12/08 13:57:39;;;;;;;3.42;1.30;;;7.90;99.90;;;;;;4956645;29;20198;-78
2021/12/08 14:00:22;;;;;;;8.10;1.60;;;7.90;99.90;;;;;;4959157;29;20531;-78
2021/12/08 14:02:51;;;;;;;4.95;1.70;;;7.60;99.90;;;;;;4959784;29;20300;-78
2021/12/08 14:05:25;;;;;;;5.05;1.40;;;7.50;99.90;;;;;;4957033;28;20262;-78
2021/12/08 14:07:55;;;;;;;2.97;1.38;;;7.50;99.90;;;;;;4940226;29;20557;-79
2021/12/08 14:10:30;;;;;;;11.68;1.65;;;7.60;99.90;;;;;;4941630;29;20175;-79